sensor_id;sensor_type;location;lat;lon;timestamp;temperature;humidity
63802;DHT22;49949;43.060;25.624;2023-07-31T00:00:14;24.20;90.20
63802;DHT22;49949;43.060;25.624;2023-07-31T00:02:39;24.30;90.40
63802;DHT22;49949;43.060;25.624;2023-07-31T00:05:05;24.20;90.50
63802;DHT22;49949;43.060;25.624;2023-07-31T00:07:32;24.20;90.60
63802;DHT22;49949;43.060;25.624;2023-07-31T00:09:58;24.20;90.80
63802;DHT22;49949;43.060;25.624;2023-07-31T00:12:23;24.20;90.90
63802;DHT22;49949;43.060;25.624;2023-07-31T00:14:49;24.20;91.30
63802;DHT22;49949;43.060;25.624;2023-07-31T00:17:17;24.20;91.80
63802;DHT22;49949;43.060;25.624;2023-07-31T00:19:43;24.10;92.50
63802;DHT22;49949;43.060;25.624;2023-07-31T00:22:11;24.20;93.20
63802;DHT22;49949;43.060;25.624;2023-07-31T00:24:37;24.10;93.30
63802;DHT22;49949;43.060;25.624;2023-07-31T00:27:03;24.10;93.70
63802;DHT22;49949;43.060;25.624;2023-07-31T00:29:29;24.00;94.00
63802;DHT22;49949;43.060;25.624;2023-07-31T00:31:54;24.00;94.70
63802;DHT22;49949;43.060;25.624;2023-07-31T00:34:20;24.00;95.00
63802;DHT22;49949;43.060;25.624;2023-07-31T00:36:47;24.00;95.00
63802;DHT22;49949;43.060;25.624;2023-07-31T00:39:13;24.00;95.00
63802;DHT22;49949;43.060;25.624;2023-07-31T00:41:39;24.00;95.30
63802;DHT22;49949;43.060;25.624;2023-07-31T00:44:04;24.00;95.50
63802;DHT22;49949;43.060;25.624;2023-07-31T00:46:30;24.00;96.50
63802;DHT22;49949;43.060;25.624;2023-07-31T00:48:56;24.00;97.80
63802;DHT22;49949;43.060;25.624;2023-07-31T00:51:22;23.80;98.60
63802;DHT22;49949;43.060;25.624;2023-07-31T00:53:48;23.70;98.40
63802;DHT22;49949;43.060;25.624;2023-07-31T00:56:14;23.60;99.30
63802;DHT22;49949;43.060;25.624;2023-07-31T00:58:40;23.50;99.60
63802;DHT22;49949;43.060;25.624;2023-07-31T01:01:06;23.50;99.80
63802;DHT22;49949;43.060;25.624;2023-07-31T01:03:32;23.40;99.90
63802;DHT22;49949;43.060;25.624;2023-07-31T01:11:29;23.30;99.90
63802;DHT22;49949;43.060;25.624;2023-07-31T01:13:55;23.20;99.90
63802;DHT22;49949;43.060;25.624;2023-07-31T01:16:21;23.20;99.90
63802;DHT22;49949;43.060;25.624;2023-07-31T01:18:47;23.20;99.90
63802;DHT22;49949;43.060;25.624;2023-07-31T01:21:21;23.30;99.90
63802;DHT22;49949;43.060;25.624;2023-07-31T01:23:56;23.30;99.90
63802;DHT22;49949;43.060;25.624;2023-07-31T01:26:31;23.30;99.90
63802;DHT22;49949;43.060;25.624;2023-07-31T01:29:07;23.30;99.90
63802;DHT22;49949;43.060;25.624;2023-07-31T01:31:36;23.40;99.90
63802;DHT22;49949;43.060;25.624;2023-07-31T01:34:04;23.40;99.90
63802;DHT22;49949;43.060;25.624;2023-07-31T01:36:31;23.40;99.90
63802;DHT22;49949;43.060;25.624;2023-07-31T01:39:01;23.40;99.90
63802;DHT22;49949;43.060;25.624;2023-07-31T01:41:27;23.30;99.90
63802;DHT22;49949;43.060;25.624;2023-07-31T01:43:53;23.30;99.90
63802;DHT22;49949;43.060;25.624;2023-07-31T01:46:18;23.30;99.90
63802;DHT22;49949;43.060;25.624;2023-07-31T01:48:44;23.30;99.90
63802;DHT22;49949;43.060;25.624;2023-07-31T01:51:10;23.30;99.90
63802;DHT22;49949;43.060;25.624;2023-07-31T01:53:35;23.30;99.90
63802;DHT22;49949;43.060;25.624;2023-07-31T01:56:01;23.30;99.90
63802;DHT22;49949;43.060;25.624;2023-07-31T01:58:27;23.30;99.90
63802;DHT22;49949;43.060;25.624;2023-07-31T02:00:52;23.10;99.90
63802;DHT22;49949;43.060;25.624;2023-07-31T02:03:18;23.00;99.90
63802;DHT22;49949;43.060;25.624;2023-07-31T02:05:45;23.00;99.90
63802;DHT22;49949;43.060;25.624;2023-07-31T02:08:11;22.90;99.90
63802;DHT22;49949;43.060;25.624;2023-07-31T02:10:37;22.80;99.90
63802;DHT22;49949;43.060;25.624;2023-07-31T02:13:02;22.80;99.90
63802;DHT22;49949;43.060;25.624;2023-07-31T02:15:30;22.80;99.90
63802;DHT22;49949;43.060;25.624;2023-07-31T02:17:56;22.70;99.90
63802;DHT22;49949;43.060;25.624;2023-07-31T02:20:21;22.60;99.90
63802;DHT22;49949;43.060;25.624;2023-07-31T02:22:47;22.40;99.90
63802;DHT22;49949;43.060;25.624;2023-07-31T02:25:13;22.30;99.90
63802;DHT22;49949;43.060;25.624;2023-07-31T02:27:38;22.30;99.90
63802;DHT22;49949;43.060;25.624;2023-07-31T02:30:04;22.20;99.90
63802;DHT22;49949;43.060;25.624;2023-07-31T02:32:30;22.10;99.90
63802;DHT22;49949;43.060;25.624;2023-07-31T02:34:56;22.10;99.90
63802;DHT22;49949;43.060;25.624;2023-07-31T02:37:22;22.10;99.90
63802;DHT22;49949;43.060;25.624;2023-07-31T02:39:47;22.10;99.90
63802;DHT22;49949;43.060;25.624;2023-07-31T02:42:14;22.00;99.90
63802;DHT22;49949;43.060;25.624;2023-07-31T02:44:39;22.00;99.90
63802;DHT22;49949;43.060;25.624;2023-07-31T02:47:05;22.00;99.90
63802;DHT22;49949;43.060;25.624;2023-07-31T02:49:31;21.90;99.90
63802;DHT22;49949;43.060;25.624;2023-07-31T02:51:56;21.90;99.90
63802;DHT22;49949;43.060;25.624;2023-07-31T02:54:22;21.90;99.90
63802;DHT22;49949;43.060;25.624;2023-07-31T02:56:48;21.80;99.90
63802;DHT22;49949;43.060;25.624;2023-07-31T02:59:15;21.70;99.90
63802;DHT22;49949;43.060;25.624;2023-07-31T03:01:41;21.70;99.90
63802;DHT22;49949;43.060;25.624;2023-07-31T03:04:07;21.60;99.90
63802;DHT22;49949;43.060;25.624;2023-07-31T03:06:32;21.60;99.90
63802;DHT22;49949;43.060;25.624;2023-07-31T03:08:58;21.60;99.90
63802;DHT22;49949;43.060;25.624;2023-07-31T03:11:24;21.50;99.90
63802;DHT22;49949;43.060;25.624;2023-07-31T03:13:49;21.50;99.90
63802;DHT22;49949;43.060;25.624;2023-07-31T03:16:15;21.50;99.90
63802;DHT22;49949;43.060;25.624;2023-07-31T03:18:41;21.50;99.90
63802;DHT22;49949;43.060;25.624;2023-07-31T03:21:06;21.40;99.90
63802;DHT22;49949;43.060;25.624;2023-07-31T03:23:32;21.40;99.90
63802;DHT22;49949;43.060;25.624;2023-07-31T03:26:02;21.40;99.90
63802;DHT22;49949;43.060;25.624;2023-07-31T03:28:29;21.40;99.90
63802;DHT22;49949;43.060;25.624;2023-07-31T03:30:55;21.40;99.90
63802;DHT22;49949;43.060;25.624;2023-07-31T03:33:21;21.40;99.90
63802;DHT22;49949;43.060;25.624;2023-07-31T03:35:46;21.40;99.90
63802;DHT22;49949;43.060;25.624;2023-07-31T03:38:12;21.40;99.90
63802;DHT22;49949;43.060;25.624;2023-07-31T03:40:38;21.50;99.90
63802;DHT22;49949;43.060;25.624;2023-07-31T03:43:05;21.50;99.90
63802;DHT22;49949;43.060;25.624;2023-07-31T03:45:31;21.50;99.90
63802;DHT22;49949;43.060;25.624;2023-07-31T03:47:57;21.50;99.90
63802;DHT22;49949;43.060;25.624;2023-07-31T03:50:23;21.50;99.90
63802;DHT22;49949;43.060;25.624;2023-07-31T03:52:50;21.40;99.90
63802;DHT22;49949;43.060;25.624;2023-07-31T03:55:17;21.40;99.90
63802;DHT22;49949;43.060;25.624;2023-07-31T03:57:43;21.40;99.90
63802;DHT22;49949;43.060;25.624;2023-07-31T04:00:10;21.40;99.90
63802;DHT22;49949;43.060;25.624;2023-07-31T04:02:36;21.40;99.90
63802;DHT22;49949;43.060;25.624;2023-07-31T04:05:01;21.40;99.90
63802;DHT22;49949;43.060;25.624;2023-07-31T04:07:27;21.50;99.90
63802;DHT22;49949;43.060;25.624;2023-07-31T04:09:53;21.50;99.90
63802;DHT22;49949;43.060;25.624;2023-07-31T04:12:18;21.50;99.90
63802;DHT22;49949;43.060;25.624;2023-07-31T04:14:46;21.50;99.90
63802;DHT22;49949;43.060;25.624;2023-07-31T04:17:11;21.50;99.90
63802;DHT22;49949;43.060;25.624;2023-07-31T04:19:37;21.60;99.90
63802;DHT22;49949;43.060;25.624;2023-07-31T04:22:03;21.60;99.90
63802;DHT22;49949;43.060;25.624;2023-07-31T04:24:29;21.60;99.90
63802;DHT22;49949;43.060;25.624;2023-07-31T04:26:55;21.60;99.90
63802;DHT22;49949;43.060;25.624;2023-07-31T04:29:21;21.60;99.90
63802;DHT22;49949;43.060;25.624;2023-07-31T04:31:48;21.60;99.90
63802;DHT22;49949;43.060;25.624;2023-07-31T04:34:14;21.60;99.90
63802;DHT22;49949;43.060;25.624;2023-07-31T04:36:40;21.70;99.90
63802;DHT22;49949;43.060;25.624;2023-07-31T04:39:05;21.70;99.90
63802;DHT22;49949;43.060;25.624;2023-07-31T04:41:34;21.70;99.90
63802;DHT22;49949;43.060;25.624;2023-07-31T04:44:01;21.80;99.90
63802;DHT22;49949;43.060;25.624;2023-07-31T04:46:29;21.80;99.90
63802;DHT22;49949;43.060;25.624;2023-07-31T04:48:54;21.90;99.90
63802;DHT22;49949;43.060;25.624;2023-07-31T04:51:20;21.90;99.90
63802;DHT22;49949;43.060;25.624;2023-07-31T04:53:46;21.90;99.90
63802;DHT22;49949;43.060;25.624;2023-07-31T04:56:12;21.90;99.90
63802;DHT22;49949;43.060;25.624;2023-07-31T04:58:39;21.90;99.90
63802;DHT22;49949;43.060;25.624;2023-07-31T05:01:05;21.90;99.90
63802;DHT22;49949;43.060;25.624;2023-07-31T05:03:30;22.00;99.90
63802;DHT22;49949;43.060;25.624;2023-07-31T05:05:56;22.00;99.90
63802;DHT22;49949;43.060;25.624;2023-07-31T05:08:22;22.00;99.90
63802;DHT22;49949;43.060;25.624;2023-07-31T05:10:47;22.00;99.90
63802;DHT22;49949;43.060;25.624;2023-07-31T05:13:14;22.10;99.90
63802;DHT22;49949;43.060;25.624;2023-07-31T05:15:41;22.10;99.90
63802;DHT22;49949;43.060;25.624;2023-07-31T05:18:07;22.10;99.90
63802;DHT22;49949;43.060;25.624;2023-07-31T05:20:33;22.10;99.90
63802;DHT22;49949;43.060;25.624;2023-07-31T05:22:58;22.20;99.90
63802;DHT22;49949;43.060;25.624;2023-07-31T05:25:24;22.20;99.90
63802;DHT22;49949;43.060;25.624;2023-07-31T05:27:50;22.20;99.90
63802;DHT22;49949;43.060;25.624;2023-07-31T05:30:15;22.20;99.90
63802;DHT22;49949;43.060;25.624;2023-07-31T05:32:44;22.20;99.90
63802;DHT22;49949;43.060;25.624;2023-07-31T05:35:10;22.20;99.90
63802;DHT22;49949;43.060;25.624;2023-07-31T05:37:36;22.20;99.90
63802;DHT22;49949;43.060;25.624;2023-07-31T05:40:01;22.20;99.90
63802;DHT22;49949;43.060;25.624;2023-07-31T05:42:27;22.30;99.90
63802;DHT22;49949;43.060;25.624;2023-07-31T05:44:53;22.30;99.90
63802;DHT22;49949;43.060;25.624;2023-07-31T05:47:18;22.30;99.90
63802;DHT22;49949;43.060;25.624;2023-07-31T05:49:44;22.40;99.90
63802;DHT22;49949;43.060;25.624;2023-07-31T05:52:10;22.40;99.90
63802;DHT22;49949;43.060;25.624;2023-07-31T05:54:35;22.40;99.90
63802;DHT22;49949;43.060;25.624;2023-07-31T05:57:01;22.50;99.90
63802;DHT22;49949;43.060;25.624;2023-07-31T05:59:27;22.60;99.90
63802;DHT22;49949;43.060;25.624;2023-07-31T06:01:53;22.70;99.90
63802;DHT22;49949;43.060;25.624;2023-07-31T06:04:18;22.80;99.90
63802;DHT22;49949;43.060;25.624;2023-07-31T06:06:44;23.00;99.90
63802;DHT22;49949;43.060;25.624;2023-07-31T06:09:10;23.10;99.90
63802;DHT22;49949;43.060;25.624;2023-07-31T06:11:37;23.20;99.90
63802;DHT22;49949;43.060;25.624;2023-07-31T06:14:02;23.30;99.90
63802;DHT22;49949;43.060;25.624;2023-07-31T06:16:28;23.40;99.90
63802;DHT22;49949;43.060;25.624;2023-07-31T06:18:54;23.40;99.90
63802;DHT22;49949;43.060;25.624;2023-07-31T06:21:20;23.50;99.90
63802;DHT22;49949;43.060;25.624;2023-07-31T06:23:45;23.60;99.90
63802;DHT22;49949;43.060;25.624;2023-07-31T06:26:11;23.70;99.90
63802;DHT22;49949;43.060;25.624;2023-07-31T06:28:37;23.70;99.90
63802;DHT22;49949;43.060;25.624;2023-07-31T06:31:02;23.70;99.90
63802;DHT22;49949;43.060;25.624;2023-07-31T06:33:28;23.70;99.90
63802;DHT22;49949;43.060;25.624;2023-07-31T06:35:54;23.70;99.90
63802;DHT22;49949;43.060;25.624;2023-07-31T06:38:23;23.70;99.90
63802;DHT22;49949;43.060;25.624;2023-07-31T06:40:49;23.80;99.90
63802;DHT22;49949;43.060;25.624;2023-07-31T06:43:15;23.90;99.90
63802;DHT22;49949;43.060;25.624;2023-07-31T06:45:40;24.00;99.90
63802;DHT22;49949;43.060;25.624;2023-07-31T06:48:06;24.00;99.90
63802;DHT22;49949;43.060;25.624;2023-07-31T06:50:32;24.10;99.90
63802;DHT22;49949;43.060;25.624;2023-07-31T06:52:58;24.30;99.90
63802;DHT22;49949;43.060;25.624;2023-07-31T06:55:26;24.40;99.90
63802;DHT22;49949;43.060;25.624;2023-07-31T06:57:54;24.50;99.90
63802;DHT22;49949;43.060;25.624;2023-07-31T07:00:21;24.50;99.90
63802;DHT22;49949;43.060;25.624;2023-07-31T07:02:48;24.40;99.90
63802;DHT22;49949;43.060;25.624;2023-07-31T07:05:14;24.30;99.90
63802;DHT22;49949;43.060;25.624;2023-07-31T07:07:41;24.30;99.90
63802;DHT22;49949;43.060;25.624;2023-07-31T07:10:07;24.10;99.90
63802;DHT22;49949;43.060;25.624;2023-07-31T07:12:33;24.10;99.90
63802;DHT22;49949;43.060;25.624;2023-07-31T07:14:59;24.10;99.90
63802;DHT22;49949;43.060;25.624;2023-07-31T07:17:27;24.10;99.90
63802;DHT22;49949;43.060;25.624;2023-07-31T07:19:53;24.10;99.90
63802;DHT22;49949;43.060;25.624;2023-07-31T07:22:18;24.20;99.90
63802;DHT22;49949;43.060;25.624;2023-07-31T07:24:44;24.30;99.90
63802;DHT22;49949;43.060;25.624;2023-07-31T07:27:10;24.30;99.90
63802;DHT22;49949;43.060;25.624;2023-07-31T07:29:37;24.40;99.90
63802;DHT22;49949;43.060;25.624;2023-07-31T07:32:03;24.50;99.90
63802;DHT22;49949;43.060;25.624;2023-07-31T07:34:29;24.50;99.90
63802;DHT22;49949;43.060;25.624;2023-07-31T07:36:55;24.70;99.90
63802;DHT22;49949;43.060;25.624;2023-07-31T07:39:21;24.80;99.90
63802;DHT22;49949;43.060;25.624;2023-07-31T07:41:46;25.00;99.90
63802;DHT22;49949;43.060;25.624;2023-07-31T07:44:13;25.00;99.90
63802;DHT22;49949;43.060;25.624;2023-07-31T07:46:39;25.30;99.90
63802;DHT22;49949;43.060;25.624;2023-07-31T07:49:05;25.50;99.90
63802;DHT22;49949;43.060;25.624;2023-07-31T07:51:31;25.80;99.90
63802;DHT22;49949;43.060;25.624;2023-07-31T07:53:57;26.10;99.90
63802;DHT22;49949;43.060;25.624;2023-07-31T07:56:25;26.80;99.90
63802;DHT22;49949;43.060;25.624;2023-07-31T07:58:51;27.20;99.90
63802;DHT22;49949;43.060;25.624;2023-07-31T08:01:16;27.50;99.90
63802;DHT22;49949;43.060;25.624;2023-07-31T08:03:42;27.90;98.50
63802;DHT22;49949;43.060;25.624;2023-07-31T08:06:08;28.20;96.90
63802;DHT22;49949;43.060;25.624;2023-07-31T08:08:35;28.40;95.50
63802;DHT22;49949;43.060;25.624;2023-07-31T08:11:01;28.20;96.10
63802;DHT22;49949;43.060;25.624;2023-07-31T08:13:27;27.90;95.70
63802;DHT22;49949;43.060;25.624;2023-07-31T08:15:53;27.70;96.20
63802;DHT22;49949;43.060;25.624;2023-07-31T08:18:18;27.60;97.10
63802;DHT22;49949;43.060;25.624;2023-07-31T08:20:44;27.40;98.30
63802;DHT22;49949;43.060;25.624;2023-07-31T08:23:10;27.30;98.20
63802;DHT22;49949;43.060;25.624;2023-07-31T08:25:36;27.10;98.80
63802;DHT22;49949;43.060;25.624;2023-07-31T08:28:03;27.00;98.90
63802;DHT22;49949;43.060;25.624;2023-07-31T08:30:29;27.00;98.40
63802;DHT22;49949;43.060;25.624;2023-07-31T08:32:54;27.00;98.40
63802;DHT22;49949;43.060;25.624;2023-07-31T08:35:20;27.10;97.90
63802;DHT22;49949;43.060;25.624;2023-07-31T08:37:46;27.20;97.80
63802;DHT22;49949;43.060;25.624;2023-07-31T08:40:11;27.30;96.90
63802;DHT22;49949;43.060;25.624;2023-07-31T08:42:51;27.50;96.00
63802;DHT22;49949;43.060;25.624;2023-07-31T08:45:19;27.70;96.30
63802;DHT22;49949;43.060;25.624;2023-07-31T08:47:46;27.70;95.30
63802;DHT22;49949;43.060;25.624;2023-07-31T08:50:14;27.70;94.80
63802;DHT22;49949;43.060;25.624;2023-07-31T08:52:40;27.80;94.60
63802;DHT22;49949;43.060;25.624;2023-07-31T08:55:07;28.00;95.30
63802;DHT22;49949;43.060;25.624;2023-07-31T08:57:35;28.90;90.40
63802;DHT22;49949;43.060;25.624;2023-07-31T09:00:03;29.20;89.90
63802;DHT22;49949;43.060;25.624;2023-07-31T09:02:38;29.00;89.30
63802;DHT22;49949;43.060;25.624;2023-07-31T09:05:07;29.10;89.20
63802;DHT22;49949;43.060;25.624;2023-07-31T09:07:36;29.70;86.90
63802;DHT22;49949;43.060;25.624;2023-07-31T09:10:03;30.00;85.10
63802;DHT22;49949;43.060;25.624;2023-07-31T09:12:29;30.60;82.50
63802;DHT22;49949;43.060;25.624;2023-07-31T09:14:59;30.50;80.60
63802;DHT22;49949;43.060;25.624;2023-07-31T09:17:32;30.60;80.90
63802;DHT22;49949;43.060;25.624;2023-07-31T09:19:58;30.80;79.80
63802;DHT22;49949;43.060;25.624;2023-07-31T09:22:37;30.80;79.40
63802;DHT22;49949;43.060;25.624;2023-07-31T09:25:23;30.90;77.10
63802;DHT22;49949;43.060;25.624;2023-07-31T09:27:54;30.80;76.50
63802;DHT22;49949;43.060;25.624;2023-07-31T09:30:21;30.50;77.60
63802;DHT22;49949;43.060;25.624;2023-07-31T09:32:48;30.20;78.70
63802;DHT22;49949;43.060;25.624;2023-07-31T09:35:27;30.00;78.60
63802;DHT22;49949;43.060;25.624;2023-07-31T09:37:55;29.80;78.20
63802;DHT22;49949;43.060;25.624;2023-07-31T09:40:49;29.80;79.70
63802;DHT22;49949;43.060;25.624;2023-07-31T09:43:21;29.80;80.00
63802;DHT22;49949;43.060;25.624;2023-07-31T09:45:47;30.00;79.50
63802;DHT22;49949;43.060;25.624;2023-07-31T09:48:15;30.20;77.60
63802;DHT22;49949;43.060;25.624;2023-07-31T09:50:44;30.50;75.50
63802;DHT22;49949;43.060;25.624;2023-07-31T09:53:10;30.90;75.50
63802;DHT22;49949;43.060;25.624;2023-07-31T09:55:37;31.20;74.50
63802;DHT22;49949;43.060;25.624;2023-07-31T09:58:05;31.10;75.60
63802;DHT22;49949;43.060;25.624;2023-07-31T10:00:31;31.30;75.50
63802;DHT22;49949;43.060;25.624;2023-07-31T10:03:04;31.20;74.40
63802;DHT22;49949;43.060;25.624;2023-07-31T10:05:50;31.00;74.10
63802;DHT22;49949;43.060;25.624;2023-07-31T10:08:18;30.40;76.10
63802;DHT22;49949;43.060;25.624;2023-07-31T10:10:45;30.40;75.80
63802;DHT22;49949;43.060;25.624;2023-07-31T10:13:12;30.50;76.20
63802;DHT22;49949;43.060;25.624;2023-07-31T10:15:38;30.70;74.90
63802;DHT22;49949;43.060;25.624;2023-07-31T10:18:06;31.30;74.40
63802;DHT22;49949;43.060;25.624;2023-07-31T10:20:32;31.60;71.60
63802;DHT22;49949;43.060;25.624;2023-07-31T10:22:59;31.50;72.00
63802;DHT22;49949;43.060;25.624;2023-07-31T10:25:26;31.00;74.30
63802;DHT22;49949;43.060;25.624;2023-07-31T10:27:53;30.50;76.60
63802;DHT22;49949;43.060;25.624;2023-07-31T10:30:23;30.20;74.70
63802;DHT22;49949;43.060;25.624;2023-07-31T10:32:51;29.90;75.80
63802;DHT22;49949;43.060;25.624;2023-07-31T10:35:18;29.90;76.80
63802;DHT22;49949;43.060;25.624;2023-07-31T10:37:44;30.20;76.50
63802;DHT22;49949;43.060;25.624;2023-07-31T10:40:13;30.50;75.50
63802;DHT22;49949;43.060;25.624;2023-07-31T10:42:54;31.00;74.60
63802;DHT22;49949;43.060;25.624;2023-07-31T10:45:39;31.30;72.00
63802;DHT22;49949;43.060;25.624;2023-07-31T10:50:40;31.10;73.00
63802;DHT22;49949;43.060;25.624;2023-07-31T10:53:26;31.00;73.30
63802;DHT22;49949;43.060;25.624;2023-07-31T10:55:52;30.80;74.20
63802;DHT22;49949;43.060;25.624;2023-07-31T10:58:19;30.60;74.00
63802;DHT22;49949;43.060;25.624;2023-07-31T11:00:48;30.30;75.80
63802;DHT22;49949;43.060;25.624;2023-07-31T11:03:16;30.00;75.90
63802;DHT22;49949;43.060;25.624;2023-07-31T11:08:31;29.70;76.70
63802;DHT22;49949;43.060;25.624;2023-07-31T11:15:59;29.70;77.80
63802;DHT22;49949;43.060;25.624;2023-07-31T11:18:28;29.70;77.20
63802;DHT22;49949;43.060;25.624;2023-07-31T11:20:54;29.80;76.50
63802;DHT22;49949;43.060;25.624;2023-07-31T11:23:21;29.90;76.70
63802;DHT22;49949;43.060;25.624;2023-07-31T11:25:47;29.90;76.00
63802;DHT22;49949;43.060;25.624;2023-07-31T11:28:14;30.00;76.60
63802;DHT22;49949;43.060;25.624;2023-07-31T11:30:42;29.60;76.50
63802;DHT22;49949;43.060;25.624;2023-07-31T11:33:09;29.60;77.70
63802;DHT22;49949;43.060;25.624;2023-07-31T11:35:41;29.80;76.20
63802;DHT22;49949;43.060;25.624;2023-07-31T11:38:26;29.60;77.20
63802;DHT22;49949;43.060;25.624;2023-07-31T11:40:54;29.40;77.20
63802;DHT22;49949;43.060;25.624;2023-07-31T11:43:20;29.10;79.50
63802;DHT22;49949;43.060;25.624;2023-07-31T11:45:58;29.60;77.40
63802;DHT22;49949;43.060;25.624;2023-07-31T11:48:34;29.70;76.50
63802;DHT22;49949;43.060;25.624;2023-07-31T11:51:02;30.00;75.20
63802;DHT22;49949;43.060;25.624;2023-07-31T11:56:01;30.40;73.00
63802;DHT22;49949;43.060;25.624;2023-07-31T11:58:34;30.40;73.10
63802;DHT22;49949;43.060;25.624;2023-07-31T12:01:00;30.40;73.10
63802;DHT22;49949;43.060;25.624;2023-07-31T12:03:27;30.50;73.20
63802;DHT22;49949;43.060;25.624;2023-07-31T12:05:53;30.50;73.90
63802;DHT22;49949;43.060;25.624;2023-07-31T12:08:21;30.40;73.40
63802;DHT22;49949;43.060;25.624;2023-07-31T12:10:51;30.30;73.60
63802;DHT22;49949;43.060;25.624;2023-07-31T12:13:25;30.70;71.90
63802;DHT22;49949;43.060;25.624;2023-07-31T12:15:56;30.80;71.90
63802;DHT22;49949;43.060;25.624;2023-07-31T12:18:24;30.80;70.90
63802;DHT22;49949;43.060;25.624;2023-07-31T12:21:09;31.00;71.30
63802;DHT22;49949;43.060;25.624;2023-07-31T12:23:37;31.10;71.30
63802;DHT22;49949;43.060;25.624;2023-07-31T12:26:04;31.20;70.10
63802;DHT22;49949;43.060;25.624;2023-07-31T12:28:34;31.20;70.90
63802;DHT22;49949;43.060;25.624;2023-07-31T12:31:00;31.20;71.30
63802;DHT22;49949;43.060;25.624;2023-07-31T12:33:35;31.00;71.00
63802;DHT22;49949;43.060;25.624;2023-07-31T12:36:03;30.80;70.80
63802;DHT22;49949;43.060;25.624;2023-07-31T12:38:29;30.80;70.80
63802;DHT22;49949;43.060;25.624;2023-07-31T12:40:55;30.70;70.80
63802;DHT22;49949;43.060;25.624;2023-07-31T12:43:21;30.80;71.60
63802;DHT22;49949;43.060;25.624;2023-07-31T12:45:47;31.00;71.30
63802;DHT22;49949;43.060;25.624;2023-07-31T12:48:13;31.20;70.90
63802;DHT22;49949;43.060;25.624;2023-07-31T12:50:39;31.10;70.80
63802;DHT22;49949;43.060;25.624;2023-07-31T12:53:05;31.00;71.70
63802;DHT22;49949;43.060;25.624;2023-07-31T12:55:34;31.20;71.30
63802;DHT22;49949;43.060;25.624;2023-07-31T12:58:00;31.30;70.90
63802;DHT22;49949;43.060;25.624;2023-07-31T13:00:26;31.10;71.10
63802;DHT22;49949;43.060;25.624;2023-07-31T13:02:52;30.90;70.80
63802;DHT22;49949;43.060;25.624;2023-07-31T13:05:18;31.00;71.60
63802;DHT22;49949;43.060;25.624;2023-07-31T13:07:45;31.20;71.30
63802;DHT22;49949;43.060;25.624;2023-07-31T13:10:11;31.50;70.00
63802;DHT22;49949;43.060;25.624;2023-07-31T13:12:37;31.80;69.20
63802;DHT22;49949;43.060;25.624;2023-07-31T13:15:04;31.90;68.80
63802;DHT22;49949;43.060;25.624;2023-07-31T13:17:30;32.00;68.30
63802;DHT22;49949;43.060;25.624;2023-07-31T13:19:55;32.00;69.20
63802;DHT22;49949;43.060;25.624;2023-07-31T13:22:21;32.00;69.00
63802;DHT22;49949;43.060;25.624;2023-07-31T13:24:47;31.90;69.30
63802;DHT22;49949;43.060;25.624;2023-07-31T13:27:13;31.90;68.60
63802;DHT22;49949;43.060;25.624;2023-07-31T13:29:39;31.80;68.60
63802;DHT22;49949;43.060;25.624;2023-07-31T13:32:05;31.80;68.80
63802;DHT22;49949;43.060;25.624;2023-07-31T13:34:31;31.70;69.10
63802;DHT22;49949;43.060;25.624;2023-07-31T13:36:56;31.50;70.30
63802;DHT22;49949;43.060;25.624;2023-07-31T13:39:22;31.40;70.60
63802;DHT22;49949;43.060;25.624;2023-07-31T13:41:48;31.40;71.40
63802;DHT22;49949;43.060;25.624;2023-07-31T13:44:15;31.60;71.30
63802;DHT22;49949;43.060;25.624;2023-07-31T13:46:40;31.60;71.00
63802;DHT22;49949;43.060;25.624;2023-07-31T13:49:06;31.50;70.60
63802;DHT22;49949;43.060;25.624;2023-07-31T13:51:32;31.50;71.10
63802;DHT22;49949;43.060;25.624;2023-07-31T13:53:57;31.40;71.30
63802;DHT22;49949;43.060;25.624;2023-07-31T13:56:23;31.40;71.30
63802;DHT22;49949;43.060;25.624;2023-07-31T13:58:49;31.40;70.90
63802;DHT22;49949;43.060;25.624;2023-07-31T14:01:14;31.30;70.90
63802;DHT22;49949;43.060;25.624;2023-07-31T14:03:40;31.40;69.90
63802;DHT22;49949;43.060;25.624;2023-07-31T14:06:06;31.30;70.10
63802;DHT22;49949;43.060;25.624;2023-07-31T14:08:31;31.30;70.30
63802;DHT22;49949;43.060;25.624;2023-07-31T14:11:00;31.30;71.10
63802;DHT22;49949;43.060;25.624;2023-07-31T14:13:26;31.20;71.50
63802;DHT22;49949;43.060;25.624;2023-07-31T14:15:51;31.10;72.50
63802;DHT22;49949;43.060;25.624;2023-07-31T14:18:18;31.00;72.20
63802;DHT22;49949;43.060;25.624;2023-07-31T14:20:44;31.00;72.10
63802;DHT22;49949;43.060;25.624;2023-07-31T14:23:10;30.80;71.90
63802;DHT22;49949;43.060;25.624;2023-07-31T14:25:35;30.80;72.40
63802;DHT22;49949;43.060;25.624;2023-07-31T14:28:01;30.80;72.90
63802;DHT22;49949;43.060;25.624;2023-07-31T14:30:27;30.70;73.70
63802;DHT22;49949;43.060;25.624;2023-07-31T14:32:52;30.50;74.80
63802;DHT22;49949;43.060;25.624;2023-07-31T14:35:18;30.30;75.70
63802;DHT22;49949;43.060;25.624;2023-07-31T14:37:44;30.10;75.40
63802;DHT22;49949;43.060;25.624;2023-07-31T14:40:11;30.00;76.40
63802;DHT22;49949;43.060;25.624;2023-07-31T14:42:38;29.90;75.90
63802;DHT22;49949;43.060;25.624;2023-07-31T14:45:04;29.90;76.70
63802;DHT22;49949;43.060;25.624;2023-07-31T14:47:30;29.90;76.30
63802;DHT22;49949;43.060;25.624;2023-07-31T14:49:57;29.80;77.20
63802;DHT22;49949;43.060;25.624;2023-07-31T14:52:23;29.80;76.90
63802;DHT22;49949;43.060;25.624;2023-07-31T14:54:49;29.70;77.70
63802;DHT22;49949;43.060;25.624;2023-07-31T14:57:15;29.60;88.10
63802;DHT22;49949;43.060;25.624;2023-07-31T14:59:41;28.60;91.60
63802;DHT22;49949;43.060;25.624;2023-07-31T15:02:10;28.10;99.90
63802;DHT22;49949;43.060;25.624;2023-07-31T15:04:36;27.70;99.90
63802;DHT22;49949;43.060;25.624;2023-07-31T15:07:02;27.20;99.90
63802;DHT22;49949;43.060;25.624;2023-07-31T15:09:28;26.90;99.90
63802;DHT22;49949;43.060;25.624;2023-07-31T15:11:55;26.60;99.90
63802;DHT22;49949;43.060;25.624;2023-07-31T15:14:21;26.20;99.90
63802;DHT22;49949;43.060;25.624;2023-07-31T15:16:46;26.00;99.90
63802;DHT22;49949;43.060;25.624;2023-07-31T15:19:13;25.80;99.90
63802;DHT22;49949;43.060;25.624;2023-07-31T15:21:39;25.80;99.90
63802;DHT22;49949;43.060;25.624;2023-07-31T15:24:05;25.50;99.90
63802;DHT22;49949;43.060;25.624;2023-07-31T15:26:30;24.80;99.90
63802;DHT22;49949;43.060;25.624;2023-07-31T15:29:06;24.10;99.90
63802;DHT22;49949;43.060;25.624;2023-07-31T15:31:38;23.40;99.90